Park Valley, UT (84329)

9:17 PM MDT on August 01, 2015 (GMT -0600)
Park Valley 1431A | | Change Station
CLOSE
Current Station
Personal Weather Station
Location: Park Valley, UT
Elevation: 5535 ft
Nearby Weather Stations

Elev 5535 ft 41.82 °N, 113.33 °W | Updated 26 seconds ago

Clear
Clear
72.3 °F
Feels Like 76 °F
N
5.0
Wind Variable Wind from North
Gusts 7.0 mph

Today
High -- | Low -- °F
--% Chance of Precip.
Yesterday
High -- | Low -- °F
Precip. -- in
6:26 AM 8:51 PM
Waning Gibbous, 96% visible
Pressure 28.87 in
Visibility 10.0 miles
Clouds Clear
Heat Index 76 °F
Dew Point 34 °F
Humidity 25%
Rainfall 0.00 in
Snow Depth Not available.
UV 0 out of 12
Pollen 5.80 out of 12
Air Quality Not available.
Flu Activity Not available.
METAR KU16 020158Z AUTO 10005KT 10SM CLR 34/M03 A2998 RMK AO2 SLP776 T03391033 $

More Conditions Fewer Conditions

Pressure 28.87 in
Visibility 10.0 miles
Clouds Clear
Heat Index 76 °F
Dew Point 34 °F
Humidity 25%
Rainfall 0.00 in
Snow Depth Not available.
UV 0 out of 12
Pollen 5.80 out of 12
Air Quality Not available.
Flu Activity Not available.
METAR KU16 020158Z AUTO 10005KT 10SM CLR 34/M03 A2998 RMK AO2 SLP776 T03391033 $

More Conditions Fewer Conditions

10-Day Weather Forecast

×

Almanac

Astronomy

Aug. 01, 2015 Rise Set
Actual Time
Civil Twilight
Nautical Twilight
Astronomical Twilight
Moon
Length of Visible Light
Length of Day
Tomorrow will be .
, % of the Moon is Illuminated

Today's Extremes

State Highs State Lows

Community

WunderPhotos

Upload Photos

1,843,152 photos uploaded!

WunderBlogs® & News

Nearby

Air Quality

  Air Quality AQ Index Pollutant
Not available.

Snow Depth

Station Depth Elevation

Earthquake Activity

City Distance Mag. Time & Date
Minimum magnitude displayed is 2.5.

Coastal Water Temperatures

Place Temperature

Stations

Nearby Weather Stations

Station Location Temp. Windchill Dew Point Humidity Wind Precip. Elev Updated Type